KLM417 EHAM-OERK
Flight info
| Callsign | KLM417 |
|---|---|
| Flight time | N/A |
| Altitude | 37000 |
| Route | EDUPO Z739 MISGO DCT DOJOH DCT DODEN DCT NEGIX DCT DINKU M867 XERUM DCT BAVAX DCT RADIZ DCT NIPEL DCT ELTIB DCT VRANA DCT DIMIS/N0471F390 DCT SALUN N705 MMA L613 KIVIL N710 TAKRI M720 FYM M872 WEJ L604 GAS G662 SIVIS |
| Aircraft | A332/H-SADE1E2E3GHIJ3J5M1P2RWXY/LB2D1 |
Departure
| Time | 2026-05-01 14:41 |
|---|---|
| Airport | Amsterdam Airport Schiphol (EHAM) |
Arrival
| Time | N/A |
|---|---|
| Airport | King Khalid International Airport (OERK) |
| Time | Latitude | Longitude | Altitude | Speed | Heading |
|---|---|---|---|---|---|
| 2026-05-01 14:03 | 52.31229 | 4.76286 | 5 ft | 0 kts | 266° |
| 2026-05-01 14:10 | 52.31229 | 4.76287 | 5 ft | 0 kts | 266° |
| 2026-05-01 14:29 | 52.31229 | 4.76295 | 5 ft | 4 kts | 266° |
| 2026-05-01 14:30 | 52.31235 | 4.76419 | 5 ft | 4 kts | 253° |
| 2026-05-01 14:30 | 52.31232 | 4.76440 | 6 ft | 4 kts | 193° |
| 2026-05-01 14:30 | 52.31254 | 4.76445 | 8 ft | 3 kts | 202° |
| 2026-05-01 14:31 | 52.31292 | 4.76477 | 7 ft | 4 kts | 212° |
| 2026-05-01 14:31 | 52.31315 | 4.76500 | 6 ft | 4 kts | 213° |
| 2026-05-01 14:31 | 52.31338 | 4.76525 | 8 ft | 4 kts | 214° |
| 2026-05-01 14:31 | 52.31355 | 4.76545 | 7 ft | 0 kts | 214° |
| 2026-05-01 14:32 | 52.31343 | 4.76528 | 8 ft | 4 kts | 222° |
| 2026-05-01 14:32 | 52.31341 | 4.76496 | 7 ft | 4 kts | 267° |
| 2026-05-01 14:32 | 52.31344 | 4.76455 | 5 ft | 4 kts | 275° |
| 2026-05-01 14:32 | 52.31357 | 4.76427 | 5 ft | 4 kts | 313° |
| 2026-05-01 14:33 | 52.31378 | 4.76417 | 5 ft | 2 kts | 342° |
| 2026-05-01 14:33 | 52.31379 | 4.76416 | 5 ft | 1 kts | 342° |
| 2026-05-01 14:34 | 52.31378 | 4.76416 | 5 ft | 0 kts | 342° |
| 2026-05-01 14:34 | 52.31378 | 4.76417 | 5 ft | 0 kts | 342° |
| 2026-05-01 14:35 | 52.31378 | 4.76416 | 5 ft | 0 kts | 342° |
| 2026-05-01 14:35 | 52.31378 | 4.76417 | 5 ft | 0 kts | 342° |
| 2026-05-01 14:36 | 52.31381 | 4.76415 | 5 ft | 1 kts | 342° |
| 2026-05-01 14:36 | 52.31392 | 4.76409 | 5 ft | 2 kts | 342° |
| 2026-05-01 14:36 | 52.31411 | 4.76399 | 5 ft | 4 kts | 342° |
| 2026-05-01 14:36 | 52.31434 | 4.76400 | 5 ft | 3 kts | 13° |
| 2026-05-01 14:37 | 52.31454 | 4.76428 | 5 ft | 7 kts | 39° |
| 2026-05-01 14:37 | 52.31522 | 4.76508 | 5 ft | 14 kts | 33° |
| 2026-05-01 14:37 | 52.31554 | 4.76649 | 5 ft | 16 kts | 84° |
| 2026-05-01 14:37 | 52.31560 | 4.76862 | 5 ft | 21 kts | 87° |
| 2026-05-01 14:38 | 52.31569 | 4.77110 | 5 ft | 22 kts | 86° |
| 2026-05-01 14:38 | 52.31590 | 4.77329 | 5 ft | 19 kts | 66° |
| 2026-05-01 14:38 | 52.31662 | 4.77514 | 4 ft | 20 kts | 57° |
| 2026-05-01 14:38 | 52.31754 | 4.77680 | 5 ft | 20 kts | 21° |
| 2026-05-01 14:39 | 52.31902 | 4.77701 | 4 ft | 22 kts | 2° |
| 2026-05-01 14:39 | 52.32033 | 4.77771 | 4 ft | 20 kts | 41° |
| 2026-05-01 14:39 | 52.32114 | 4.77893 | 4 ft | 12 kts | 52° |
| 2026-05-01 14:39 | 52.32117 | 4.77994 | 2 ft | 7 kts | 118° |
| 2026-05-01 14:40 | 52.32078 | 4.78010 | 2 ft | 6 kts | 178° |
| 2026-05-01 14:40 | 52.31847 | 4.77993 | 3 ft | 74 kts | 183° |
| 2026-05-01 14:40 | 52.31078 | 4.77917 | 2 ft | 145 kts | 184° |
| 2026-05-01 14:40 | 52.29931 | 4.77736 | 312 ft | 169 kts | 180° |
| 2026-05-01 14:41 | 52.28769 | 4.77763 | 1201 ft | 170 kts | 180° |
| 2026-05-01 14:41 | 52.27545 | 4.77847 | 1898 ft | 180 kts | 168° |
| 2026-05-01 14:41 | 52.26393 | 4.78769 | 2483 ft | 200 kts | 139° |
| 2026-05-01 14:41 | 52.25629 | 4.80724 | 3175 ft | 211 kts | 108° |
| 2026-05-01 14:42 | 52.25616 | 4.83146 | 4023 ft | 218 kts | 79° |
| 2026-05-01 14:42 | 52.26338 | 4.85344 | 4753 ft | 229 kts | 49° |
| 2026-05-01 14:42 | 52.27222 | 4.87493 | 5324 ft | 231 kts | 73° |
| 2026-05-01 14:42 | 52.27455 | 4.90046 | 5972 ft | 226 kts | 98° |
| 2026-05-01 14:43 | 52.27069 | 4.92467 | 6691 ft | 219 kts | 121° |
| 2026-05-01 14:43 | 52.26263 | 4.94521 | 7409 ft | 212 kts | 128° |
| 2026-05-01 14:43 | 52.25466 | 4.96623 | 7908 ft | 227 kts | 120° |
| 2026-05-01 14:43 | 52.24947 | 4.99149 | 8318 ft | 244 kts | 104° |
| 2026-05-01 14:44 | 52.24833 | 5.01950 | 8777 ft | 258 kts | 90° |
| 2026-05-01 14:44 | 52.25249 | 5.07936 | 9712 ft | 273 kts | 95° |
| 2026-05-01 14:44 | 52.25091 | 5.11125 | 9995 ft | 288 kts | 99° |
| 2026-05-01 14:45 | 52.24877 | 5.14443 | 10312 ft | 303 kts | 98° |
| 2026-05-01 14:45 | 52.24535 | 5.21726 | 10713 ft | 337 kts | 97° |
| 2026-05-01 14:45 | 52.24058 | 5.25468 | 11249 ft | 336 kts | 111° |
| 2026-05-01 14:46 | 52.23074 | 5.28873 | 11852 ft | 334 kts | 124° |
| 2026-05-01 14:46 | 52.20380 | 5.35027 | 12982 ft | 338 kts | 128° |
| 2026-05-01 14:46 | 52.19025 | 5.38115 | 13584 ft | 340 kts | 127° |
| 2026-05-01 14:47 | 52.17645 | 5.41274 | 14142 ft | 343 kts | 127° |
| 2026-05-01 14:47 | 52.16256 | 5.44460 | 14671 ft | 345 kts | 127° |
| 2026-05-01 14:47 | 52.14861 | 5.47659 | 15195 ft | 348 kts | 127° |
| 2026-05-01 14:48 | 52.12035 | 5.54131 | 16225 ft | 353 kts | 127° |
| 2026-05-01 14:48 | 52.10607 | 5.57393 | 16716 ft | 356 kts | 127° |
| 2026-05-01 14:48 | 52.07711 | 5.63996 | 17717 ft | 361 kts | 127° |
| 2026-05-01 14:49 | 52.06418 | 5.66917 | 18150 ft | 363 kts | 128° |
| 2026-05-01 14:49 | 52.03148 | 5.73164 | 19053 ft | 368 kts | 132° |
| 2026-05-01 14:50 | 52.00885 | 5.77377 | 19650 ft | 371 kts | 132° |
| 2026-05-01 14:50 | 51.96327 | 5.85862 | 20812 ft | 378 kts | 131° |
| 2026-05-01 14:51 | 51.94617 | 5.89055 | 21268 ft | 381 kts | 131° |
| 2026-05-01 14:51 | 51.91123 | 5.95578 | 22144 ft | 386 kts | 131° |
| 2026-05-01 14:52 | 51.87567 | 6.02195 | 23002 ft | 392 kts | 131° |
| 2026-05-01 14:52 | 51.85769 | 6.05533 | 23437 ft | 396 kts | 131° |
| 2026-05-01 14:52 | 51.82733 | 6.11147 | 24115 ft | 401 kts | 131° |
| 2026-05-01 14:53 | 51.80881 | 6.14543 | 24483 ft | 404 kts | 131° |
| 2026-05-01 14:53 | 51.79012 | 6.17953 | 24848 ft | 407 kts | 131° |
| 2026-05-01 14:53 | 51.77129 | 6.21388 | 25218 ft | 410 kts | 131° |
| 2026-05-01 14:53 | 51.75235 | 6.24844 | 25579 ft | 412 kts | 131° |
| 2026-05-01 14:54 | 51.73329 | 6.28317 | 25944 ft | 415 kts | 131° |
| 2026-05-01 14:54 | 51.71405 | 6.31828 | 26310 ft | 418 kts | 131° |
| 2026-05-01 14:54 | 51.69476 | 6.35342 | 26669 ft | 420 kts | 131° |
| 2026-05-01 14:54 | 51.67530 | 6.38879 | 27007 ft | 423 kts | 131° |
| 2026-05-01 14:55 | 51.65566 | 6.42446 | 27362 ft | 426 kts | 131° |
| 2026-05-01 14:55 | 51.63593 | 6.46022 | 27703 ft | 429 kts | 131° |
| 2026-05-01 14:55 | 51.61624 | 6.49582 | 28041 ft | 431 kts | 131° |
| 2026-05-01 14:55 | 51.59619 | 6.53201 | 28370 ft | 434 kts | 131° |
| 2026-05-01 14:56 | 51.57599 | 6.56846 | 28710 ft | 437 kts | 131° |
| 2026-05-01 14:56 | 51.55572 | 6.60498 | 29025 ft | 439 kts | 131° |
| 2026-05-01 14:56 | 51.53533 | 6.64166 | 29342 ft | 442 kts | 131° |
| 2026-05-01 14:56 | 51.51472 | 6.67871 | 29659 ft | 444 kts | 131° |
| 2026-05-01 14:57 | 51.49405 | 6.71580 | 29977 ft | 447 kts | 131° |
| 2026-05-01 14:57 | 51.45232 | 6.79054 | 30561 ft | 452 kts | 131° |
| 2026-05-01 14:57 | 51.43126 | 6.82818 | 30823 ft | 455 kts | 131° |
| 2026-05-01 14:58 | 51.41008 | 6.86597 | 31098 ft | 457 kts | 132° |
| 2026-05-01 14:58 | 51.38769 | 6.90252 | 31367 ft | 460 kts | 136° |
| 2026-05-01 14:58 | 51.36462 | 6.93820 | 31636 ft | 463 kts | 136° |
| 2026-05-01 14:58 | 51.34146 | 6.97408 | 31913 ft | 465 kts | 136° |
| 2026-05-01 14:59 | 51.31812 | 7.01025 | 32186 ft | 468 kts | 136° |
| 2026-05-01 14:59 | 51.29465 | 7.04661 | 32442 ft | 470 kts | 136° |
| 2026-05-01 14:59 | 51.27103 | 7.08316 | 32681 ft | 473 kts | 136° |
| 2026-05-01 14:59 | 51.24737 | 7.11979 | 32917 ft | 475 kts | 136° |
| 2026-05-01 15:00 | 51.19963 | 7.19342 | 33275 ft | 479 kts | 136° |
| 2026-05-01 15:00 | 51.17556 | 7.23039 | 33462 ft | 481 kts | 136° |
| 2026-05-01 15:00 | 51.15168 | 7.26700 | 33611 ft | 483 kts | 136° |
| 2026-05-01 15:01 | 51.12743 | 7.30412 | 33761 ft | 484 kts | 136° |
| 2026-05-01 15:01 | 51.10315 | 7.34126 | 33898 ft | 485 kts | 136° |
| 2026-05-01 15:01 | 51.07875 | 7.37854 | 34071 ft | 486 kts | 136° |
| 2026-05-01 15:01 | 51.05436 | 7.41577 | 34258 ft | 486 kts | 137° |
| 2026-05-01 15:02 | 51.02988 | 7.45305 | 34437 ft | 486 kts | 137° |
| 2026-05-01 15:02 | 51.01345 | 7.47807 | 34589 ft | 485 kts | 137° |
| 2026-05-01 15:02 | 50.98117 | 7.52711 | 34855 ft | 484 kts | 137° |
| 2026-05-01 15:02 | 50.95682 | 7.56404 | 35044 ft | 483 kts | 137° |
| 2026-05-01 15:03 | 50.93321 | 7.59977 | 35223 ft | 483 kts | 137° |
| 2026-05-01 15:03 | 50.90807 | 7.63776 | 35406 ft | 482 kts | 137° |
| 2026-05-01 15:03 | 50.88382 | 7.67435 | 35611 ft | 482 kts | 137° |
| 2026-05-01 15:03 | 50.85957 | 7.71088 | 35781 ft | 481 kts | 137° |
| 2026-05-01 15:04 | 50.83561 | 7.74697 | 35953 ft | 481 kts | 137° |
| 2026-05-01 15:04 | 50.81131 | 7.78339 | 36120 ft | 481 kts | 137° |
| 2026-05-01 15:04 | 50.78699 | 7.81961 | 36310 ft | 480 kts | 137° |
| 2026-05-01 15:05 | 50.73842 | 7.89179 | 36314 ft | 478 kts | 137° |
| 2026-05-01 15:05 | 50.68988 | 7.96375 | 36320 ft | 479 kts | 137° |